Time;durP1;ratioP1;P1;durP2;ratioP2;P2;SDS_P1;SDS_P2;PMS_P1;PMS_P2;Temp;Humidity;BMP_temperature;BMP_pressure;BME280_temperature;BME280_humidity;BME280_pressure;Samples;Min_cycle;Max_cycle;Signal;HPM_P1;HPM_P2
2022/05/08 00:00:24;;;;;;;6.67;4.63;;;;;;;14.15;67.16;101750.72;5033213;28;20216;-81
2022/05/08 00:02:54;;;;;;;6.00;4.03;;;;;;;14.12;67.13;101762.47;5033033;28;20545;-81
2022/05/08 00:05:20;;;;;;;5.37;4.20;;;;;;;14.08;67.02;101762.75;5032480;28;20214;-80
2022/05/08 00:07:47;;;;;;;7.23;4.13;;;;;;;14.05;67.01;101753.09;5032763;28;20226;-81
2022/05/08 00:10:13;;;;;;;8.10;4.90;;;;;;;14.01;67.49;101759.56;5032492;28;20198;-81
2022/05/08 00:12:40;;;;;;;5.60;4.67;;;;;;;13.98;67.38;101769.59;5032279;28;20198;-81
2022/05/08 00:15:07;;;;;;;4.77;3.73;;;;;;;13.93;67.45;101761.88;5032588;28;20209;-81
2022/05/08 00:17:35;;;;;;;6.07;3.57;;;;;;;13.89;67.00;101754.97;5032694;28;20245;-81
2022/05/08 00:20:04;;;;;;;10.13;4.83;;;;;;;13.83;67.48;101766.03;5032229;28;20217;-81
2022/05/08 00:22:30;;;;;;;6.77;4.60;;;;;;;13.75;67.64;101755.78;5032939;28;20210;-81
2022/05/08 00:24:57;;;;;;;7.20;4.70;;;;;;;13.70;67.42;101762.34;5033441;28;20206;-81
2022/05/08 00:27:24;;;;;;;6.43;4.77;;;;;;;13.64;67.54;101760.88;5032923;28;20226;-81
2022/05/08 00:29:50;;;;;;;6.53;4.60;;;;;;;13.59;67.62;101763.00;5033205;28;20213;-81
2022/05/08 00:32:18;;;;;;;7.53;5.07;;;;;;;13.54;68.04;101762.38;5032860;28;20206;-80
2022/05/08 00:34:46;;;;;;;11.07;4.83;;;;;;;13.49;68.00;101767.13;5032166;28;20474;-80
2022/05/08 00:37:12;;;;;;;9.07;4.90;;;;;;;13.43;68.45;101760.34;5031604;28;20234;-81
2022/05/08 00:39:39;;;;;;;9.63;5.87;;;;;;;13.37;68.11;101774.06;5032296;28;20234;-80
2022/05/08 00:42:05;;;;;;;9.63;5.40;;;;;;;13.30;68.84;101767.31;5032337;28;20206;-81
2022/05/08 00:44:32;;;;;;;12.00;5.77;;;;;;;13.25;68.90;101765.88;5032598;28;20205;-81
2022/05/08 00:46:59;;;;;;;10.60;5.60;;;;;;;13.20;68.98;101776.84;5031854;28;20234;-81
2022/05/08 00:49:25;;;;;;;10.87;6.40;;;;;;;13.13;68.90;101773.59;5032280;28;20553;-81
2022/05/08 00:51:53;;;;;;;11.70;6.07;;;;;;;13.07;68.94;101770.44;5032317;28;20212;-81
2022/05/08 00:54:20;;;;;;;11.03;5.20;;;;;;;13.00;69.53;101785.06;5032166;28;20210;-81
2022/05/08 00:56:46;;;;;;;10.47;6.50;;;;;;;12.95;69.32;101789.81;5031766;28;20232;-81
2022/05/08 00:59:13;;;;;;;8.43;5.60;;;;;;;12.90;69.39;101781.19;5032259;28;20236;-81
2022/05/08 01:01:40;;;;;;;10.27;5.30;;;;;;;12.85;69.46;101782.31;5032558;28;20569;-81
2022/05/08 01:04:06;;;;;;;11.53;5.73;;;;;;;12.82;69.82;101781.59;5032591;28;20214;-81
2022/05/08 01:06:33;;;;;;;13.17;5.50;;;;;;;12.77;69.57;101786.31;5032883;28;20209;-80
2022/05/08 01:09:01;;;;;;;11.83;5.40;;;;;;;12.69;69.23;101796.59;5033252;28;20213;-80
2022/05/08 01:11:28;;;;;;;12.90;5.30;;;;;;;12.61;69.14;101788.09;5032987;28;20205;-81
2022/05/08 01:13:55;;;;;;;9.17;4.27;;;;;;;12.54;69.14;101792.91;5032452;28;20206;-81
2022/05/08 01:16:22;;;;;;;14.33;4.83;;;;;;;12.43;68.89;101787.28;5033221;28;20208;-80
2022/05/08 01:18:50;;;;;;;12.37;4.73;;;;;;;12.36;69.02;101789.41;5032562;28;20276;-81
2022/05/08 01:21:19;;;;;;;16.83;5.37;;;;;;;12.29;69.13;101789.81;5033104;28;20202;-81
2022/05/08 01:23:47;;;;;;;15.77;5.40;;;;;;;12.24;69.57;101794.53;5032735;28;20221;-81
2022/05/08 01:26:20;;;;;;;11.50;5.13;;;;;;;12.20;69.15;101798.28;5032319;28;20216;-81
2022/05/08 01:28:46;;;;;;;12.73;5.30;;;;;;;12.14;69.51;101800.38;5032160;28;20226;-81
2022/05/08 01:31:13;;;;;;;12.07;5.83;;;;;;;12.12;69.74;101806.72;5031661;28;20210;-81
2022/05/08 01:33:40;;;;;;;17.03;5.40;;;;;;;12.08;69.87;101800.66;5031919;28;20211;-81
2022/05/08 01:36:07;;;;;;;11.57;5.03;;;;;;;12.05;70.19;101800.81;5032277;28;20211;-80
2022/05/08 01:38:33;;;;;;;12.53;5.60;;;;;;;12.03;70.02;101816.06;5031241;28;20229;-81
2022/05/08 01:41:04;;;;;;;14.63;5.33;;;;;;;11.99;70.27;101810.97;5030850;28;20215;-81
2022/05/08 01:43:34;;;;;;;13.60;5.30;;;;;;;11.93;70.31;101824.63;5030806;28;20407;-81
2022/05/08 01:46:01;;;;;;;8.63;4.37;;;;;;;11.88;70.27;101822.16;5032398;28;20199;-81
2022/05/08 01:48:27;;;;;;;13.73;4.80;;;;;;;11.80;69.92;101827.91;5033073;28;20226;-81
2022/05/08 01:50:55;;;;;;;11.40;4.67;;;;;;;11.74;70.13;101828.16;5036345;28;20298;-83
2022/05/08 01:53:24;;;;;;;14.67;4.93;;;;;;;11.70;70.28;101828.38;5036445;28;20592;-82
2022/05/08 01:55:54;;;;;;;15.63;5.00;;;;;;;11.65;69.87;101833.06;5036467;28;20572;-81
2022/05/08 01:58:22;;;;;;;17.40;4.50;;;;;;;11.59;69.59;101834.25;5036710;28;20893;-81
2022/05/08 02:00:49;;;;;;;16.53;4.37;;;;;;;11.56;69.56;101833.53;5035591;28;20223;-81
2022/05/08 02:03:16;;;;;;;13.00;4.00;;;;;;;11.49;69.37;101827.63;5035682;28;20206;-81
2022/05/08 02:05:44;;;;;;;13.77;4.70;;;;;;;11.42;69.18;101834.22;5035857;28;20215;-81
2022/05/08 02:08:12;;;;;;;11.93;3.97;;;;;;;11.37;69.30;101836.22;5035187;28;20223;-81
2022/05/08 02:10:39;;;;;;;12.37;4.63;;;;;;;11.31;68.77;101839.19;5034923;28;20198;-81
2022/05/08 02:13:07;;;;;;;16.40;4.33;;;;;;;11.24;68.72;101837.75;5034960;28;20202;-81
2022/05/08 02:15:35;;;;;;;13.87;4.33;;;;;;;11.20;68.74;101841.50;5035068;28;20210;-81
2022/05/08 02:18:04;;;;;;;22.07;4.77;;;;;;;11.14;68.62;101843.50;5034960;28;20239;-81
2022/05/08 02:20:31;;;;;;;11.90;3.37;;;;;;;11.09;68.18;101853.53;5035750;28;20222;-81
2022/05/08 02:22:57;;;;;;;17.60;4.20;;;;;;;11.03;68.27;101853.81;5035191;28;20213;-81
2022/05/08 02:25:24;;;;;;;10.83;3.87;;;;;;;10.98;68.04;101846.97;5035889;28;20213;-81
2022/05/08 02:27:51;;;;;;;16.67;3.30;;;;;;;10.92;67.77;101856.13;5034644;28;20236;-81
2022/05/08 02:30:20;;;;;;;12.57;4.73;;;;;;;10.88;67.93;101856.31;5035247;28;20272;-81
2022/05/08 02:32:51;;;;;;;15.53;4.73;;;;;;;10.84;67.71;101847.59;5035435;28;20214;-81
2022/05/08 02:35:20;;;;;;;14.90;3.83;;;;;;;10.78;67.93;101850.53;5035413;28;20194;-81
2022/05/08 02:37:48;;;;;;;12.33;3.90;;;;;;;10.72;67.99;101848.16;5034999;28;20230;-81
2022/05/08 02:40:15;;;;;;;13.00;3.90;;;;;;;10.66;68.02;101856.41;5035459;28;20222;-81
2022/05/08 02:42:42;;;;;;;12.67;3.90;;;;;;;10.62;68.47;101861.00;5036135;28;20238;-81
2022/05/08 02:45:09;;;;;;;11.07;3.40;;;;;;;10.58;68.22;101855.88;5035775;28;20569;-81
2022/05/08 02:47:36;;;;;;;17.30;3.17;;;;;;;10.53;68.03;101857.91;5035404;28;20232;-81
2022/05/08 02:50:05;;;;;;;14.10;4.53;;;;;;;10.47;67.98;101856.34;5035027;28;20210;-81
2022/05/08 02:52:32;;;;;;;13.80;3.10;;;;;;;10.43;68.01;101860.94;5035297;28;20220;-81
2022/05/08 02:58:32;;;;;;;11.80;3.20;;;;;;;10.42;67.99;101861.88;5035533;28;20302;-81
2022/05/08 03:00:35;;;;;;;14.93;4.10;;;;;;;10.35;68.10;101862.22;5034753;28;20237;-81
2022/05/08 03:03:04;;;;;;;19.20;4.57;;;;;;;10.33;67.95;101864.94;5035149;28;20206;-81
2022/05/08 03:05:32;;;;;;;30.00;5.00;;;;;;;10.32;68.50;101868.53;5035123;28;20221;-81
2022/05/08 03:07:58;;;;;;;12.53;3.40;;;;;;;10.32;68.38;101868.53;5034274;28;20237;-81
2022/05/08 03:10:25;;;;;;;13.70;3.80;;;;;;;10.31;68.39;101865.94;5035459;28;20217;-81
2022/05/08 03:12:51;;;;;;;13.57;4.10;;;;;;;10.27;67.91;101867.00;5034887;28;20217;-81
2022/05/08 03:15:18;;;;;;;11.37;3.73;;;;;;;10.24;68.01;101867.13;5035071;28;20202;-81
2022/05/08 03:17:44;;;;;;;11.50;3.60;;;;;;;10.21;68.02;101864.63;5034952;28;20233;-80
2022/05/08 03:20:11;;;;;;;11.60;3.40;;;;;;;10.14;68.12;101874.63;5035889;28;20236;-81
2022/05/08 03:22:39;;;;;;;13.60;3.70;;;;;;;10.09;68.71;101869.47;5035983;28;20206;-80
2022/05/08 03:25:06;;;;;;;15.67;3.87;;;;;;;10.06;69.10;101872.25;5035473;28;20212;-80
2022/05/08 03:27:33;;;;;;;14.13;3.93;;;;;;;10.05;69.05;101878.50;5035017;28;20593;-81
2022/05/08 03:29:59;;;;;;;11.17;3.70;;;;;;;10.03;68.92;101871.56;5034989;28;20199;-81
2022/05/08 03:32:26;;;;;;;16.47;4.03;;;;;;;10.00;68.89;101888.50;5035224;28;20719;-81
2022/05/08 03:34:52;;;;;;;14.07;4.53;;;;;;;9.98;69.38;101887.69;5034382;28;20214;-80
2022/05/08 03:37:19;;;;;;;13.97;3.97;;;;;;;9.97;69.73;101887.75;5034796;28;20226;-81
2022/05/08 03:39:47;;;;;;;14.13;4.00;;;;;;;9.95;69.34;101890.47;5034148;28;20233;-82
2022/05/08 03:42:13;;;;;;;13.27;3.70;;;;;;;9.93;69.30;101880.81;5034345;28;20221;-81
2022/05/08 03:44:40;;;;;;;14.37;4.10;;;;;;;9.91;69.94;101888.00;5034435;28;20256;-81
2022/05/08 03:47:07;;;;;;;8.53;3.57;;;;;;;9.88;69.80;101891.66;5033937;28;20230;-81
2022/05/08 03:49:33;;;;;;;16.77;3.87;;;;;;;9.83;69.57;101882.16;5034606;28;20202;-81
2022/05/08 03:52:01;;;;;;;14.23;3.87;;;;;;;9.80;69.64;101880.47;5033715;28;20202;-81
2022/05/08 03:54:27;;;;;;;12.30;3.93;;;;;;;9.74;69.07;101876.25;5034143;28;20206;-81
2022/05/08 03:56:55;;;;;;;14.10;3.30;;;;;;;9.70;69.62;101876.44;5033867;28;20827;-81
2022/05/08 03:59:21;;;;;;;8.27;3.23;;;;;;;9.65;69.92;101881.09;5034222;28;20226;-81
2022/05/08 04:01:48;;;;;;;11.17;3.37;;;;;;;9.60;69.62;101877.75;5035605;28;20212;-81
2022/05/08 04:04:14;;;;;;;13.33;3.93;;;;;;;9.54;69.24;101881.50;5035703;28;20206;-81
2022/05/08 04:06:41;;;;;;;13.03;3.87;;;;;;;9.50;69.47;101884.31;5034379;28;20634;-81
2022/05/08 04:09:08;;;;;;;10.67;3.60;;;;;;;9.45;69.74;101889.84;5034758;28;20202;-81
2022/05/08 04:11:35;;;;;;;13.00;3.53;;;;;;;9.41;69.49;101882.91;5033838;28;20206;-81
2022/05/08 04:14:03;;;;;;;11.60;3.20;;;;;;;9.37;70.38;101881.28;5035320;28;20584;-81
2022/05/08 04:16:30;;;;;;;12.80;3.77;;;;;;;9.32;70.26;101878.81;5034739;28;20206;-81
2022/05/08 04:18:56;;;;;;;20.03;3.33;;;;;;;9.29;70.61;101878.94;5034508;28;20214;-81
2022/05/08 04:21:23;;;;;;;13.83;3.60;;;;;;;9.28;70.28;101882.53;5035237;28;20576;-81
2022/05/08 04:26:34;;;;;;;15.17;3.97;;;;;;;9.26;70.26;101888.81;5034773;28;20188;-81
2022/05/08 04:29:03;;;;;;;7.73;3.23;;;;;;;9.26;71.23;101895.00;5034848;28;20216;-82
2022/05/08 04:31:30;;;;;;;21.13;4.07;;;;;;;9.26;70.34;101889.69;5034177;28;20629;-81
2022/05/08 04:33:56;;;;;;;14.77;3.90;;;;;;;9.26;71.02;101899.47;5034311;28;20217;-81
2022/05/08 04:36:23;;;;;;;12.13;3.57;;;;;;;9.25;70.64;101893.28;5034212;28;20202;-81
2022/05/08 04:38:49;;;;;;;15.60;3.60;;;;;;;9.25;71.40;101893.28;5033433;28;20712;-81
2022/05/08 04:41:17;;;;;;;12.47;3.53;;;;;;;9.23;71.24;101891.59;5034515;28;20226;-81
2022/05/08 04:43:44;;;;;;;13.37;3.83;;;;;;;9.21;71.34;101902.28;5034039;28;20210;-81
2022/05/08 04:46:12;;;;;;;12.57;3.37;;;;;;;9.22;70.97;101903.16;5034177;28;20213;-81
2022/05/08 04:48:41;;;;;;;9.77;3.47;;;;;;;9.22;71.20;101900.50;5034059;28;20712;-81
2022/05/08 04:51:08;;;;;;;12.83;3.60;;;;;;;9.21;71.31;101902.28;5034570;28;20964;-81
2022/05/08 04:53:35;;;;;;;16.13;4.43;;;;;;;9.23;71.18;101907.53;5034898;28;20221;-81
2022/05/08 04:56:01;;;;;;;13.20;3.37;;;;;;;9.21;71.29;101914.72;5034401;28;20232;-81
2022/05/08 04:58:29;;;;;;;12.03;3.70;;;;;;;9.19;71.31;101912.09;5035027;28;20222;-81
2022/05/08 05:00:57;;;;;;;15.20;4.23;;;;;;;9.19;71.14;101925.41;5034788;28;20670;-81
2022/05/08 05:03:26;;;;;;;13.67;4.30;;;;;;;9.19;70.99;101921.88;5035391;28;20264;-81
2022/05/08 05:05:52;;;;;;;11.90;4.00;;;;;;;9.18;71.43;101922.78;5034606;28;20202;-81
2022/05/08 05:08:20;;;;;;;19.00;4.00;;;;;;;9.18;71.41;101928.97;5034272;28;20233;-81
2022/05/08 05:10:47;;;;;;;8.07;3.40;;;;;;;9.18;70.92;101928.97;5034379;28;20276;-81
2022/05/08 05:13:14;;;;;;;10.77;3.70;;;;;;;9.19;70.97;101932.50;5034461;28;20225;-81
2022/05/08 05:15:40;;;;;;;10.93;4.13;;;;;;;9.17;71.08;101932.56;5033648;28;20202;-81
2022/05/08 05:18:07;;;;;;;11.00;4.07;;;;;;;9.18;71.33;101939.59;5034248;28;20238;-81
2022/05/08 05:20:35;;;;;;;15.63;4.70;;;;;;;9.19;71.02;101943.13;5034268;28;20241;-81
2022/05/08 05:23:02;;;;;;;14.87;4.57;;;;;;;9.19;70.88;101951.09;5034214;28;20210;-81
2022/05/08 05:25:29;;;;;;;12.80;3.87;;;;;;;9.20;71.03;101952.84;5034099;28;20198;-81
2022/05/08 05:27:57;;;;;;;10.47;4.03;;;;;;;9.20;70.63;101958.16;5034729;28;20230;-82
2022/05/08 05:30:24;;;;;;;13.63;3.70;;;;;;;9.21;70.21;101954.56;5035266;28;20558;-81
2022/05/08 05:32:50;;;;;;;11.40;3.70;;;;;;;9.22;70.46;101961.63;5034091;28;20252;-81
2022/05/08 05:35:17;;;;;;;8.80;3.30;;;;;;;9.25;70.22;101962.38;5033944;28;20293;-81
2022/05/08 05:37:45;;;;;;;13.67;4.17;;;;;;;9.29;70.75;101957.84;5033833;28;20226;-81
2022/05/08 05:40:12;;;;;;;11.00;4.33;;;;;;;9.33;70.45;101967.41;5033978;28;20576;-83
2022/05/08 05:42:38;;;;;;;7.13;3.33;;;;;;;9.38;70.47;101968.97;5033572;28;20231;-82
2022/05/08 05:45:06;;;;;;;15.20;4.13;;;;;;;9.46;70.20;101971.38;5034798;28;20206;-82
2022/05/08 05:47:50;;;;;;;16.27;4.30;;;;;;;9.51;69.97;101971.16;5034278;28;20236;-81
2022/05/08 05:50:17;;;;;;;16.20;3.70;;;;;;;9.57;69.65;101978.94;5034788;28;20194;-82
2022/05/08 05:52:45;;;;;;;9.43;3.37;;;;;;;9.61;69.04;101973.44;5034602;28;20214;-81
2022/05/08 05:55:12;;;;;;;14.33;3.67;;;;;;;9.70;69.44;101977.50;5034945;28;20206;-81
2022/05/08 05:57:39;;;;;;;10.87;3.30;;;;;;;9.79;68.50;101984.28;5034290;28;20586;-82
2022/05/08 06:00:10;;;;;;;10.97;3.67;;;;;;;9.89;68.63;101986.53;5033439;28;20230;-82
2022/05/08 06:02:37;;;;;;;11.90;3.30;;;;;;;10.02;68.67;101976.28;5034023;28;20223;-81
2022/05/08 06:05:06;;;;;;;11.90;4.37;;;;;;;10.14;68.23;101986.44;5033898;28;20221;-82
2022/05/08 06:07:32;;;;;;;8.43;3.00;;;;;;;10.25;67.65;101989.53;5033635;28;20230;-81
2022/05/08 06:10:01;;;;;;;12.97;3.07;;;;;;;10.34;66.92;101988.31;5033299;28;20208;-81
2022/05/08 06:12:28;;;;;;;13.33;2.97;;;;;;;10.41;66.64;101990.66;5033209;28;20209;-81
2022/05/08 06:14:54;;;;;;;7.93;3.27;;;;;;;10.56;66.66;101990.97;5033690;28;20572;-81
2022/05/08 06:17:21;;;;;;;6.67;2.80;;;;;;;10.64;65.72;101987.03;5033371;28;20241;-81
2022/05/08 06:19:47;;;;;;;7.13;2.37;;;;;;;10.74;65.41;101982.19;5033324;28;20218;-81
2022/05/08 06:22:14;;;;;;;11.17;2.23;;;;;;;10.89;64.88;101980.66;5033515;28;20214;-81
2022/05/08 06:24:40;;;;;;;13.33;3.57;;;;;;;10.97;63.78;101978.50;5033507;28;20229;-81
2022/05/08 06:27:08;;;;;;;9.27;2.27;;;;;;;11.08;63.03;101978.91;5033489;28;20231;-82
2022/05/08 06:29:35;;;;;;;8.23;1.87;;;;;;;11.20;62.03;101980.16;5033501;28;20217;-83
2022/05/08 06:32:02;;;;;;;8.63;2.00;;;;;;;11.28;61.37;101986.03;5033576;28;20214;-81
2022/05/08 06:34:29;;;;;;;8.97;1.90;;;;;;;11.38;60.99;101982.88;5033476;28;20293;-81
2022/05/08 06:36:55;;;;;;;6.87;1.80;;;;;;;11.48;59.63;101981.50;5037300;28;20227;-81
2022/05/08 06:39:22;;;;;;;10.33;2.40;;;;;;;11.55;59.20;101974.09;5037455;28;20283;-81
2022/05/08 06:41:49;;;;;;;8.87;2.47;;;;;;;11.62;58.88;101972.88;5037159;28;20733;-81
2022/05/08 06:44:17;;;;;;;6.83;2.07;;;;;;;11.69;58.39;101970.75;5037530;28;20202;-81
2022/05/08 06:46:43;;;;;;;7.13;1.80;;;;;;;11.77;59.00;101980.19;5037206;28;20206;-81
2022/05/08 06:49:10;;;;;;;5.93;1.53;;;;;;;11.89;58.87;101975.19;5036697;28;20276;-82
2022/05/08 06:51:37;;;;;;;7.63;2.23;;;;;;;11.98;58.30;101975.63;5036187;28;20203;-82
2022/05/08 06:54:04;;;;;;;9.23;2.30;;;;;;;12.11;57.89;101978.56;5036568;28;20242;-82
2022/05/08 06:56:35;;;;;;;10.40;2.17;;;;;;;12.22;57.67;101973.56;5036160;28;20203;-82
2022/05/08 07:01:47;;;;;;;7.87;2.20;;;;;;;12.48;56.35;101977.63;5036359;28;20336;-81
2022/05/08 07:04:13;;;;;;;7.70;2.03;;;;;;;12.58;55.73;101976.19;5036298;28;20213;-81
2022/05/08 07:06:41;;;;;;;7.03;1.90;;;;;;;12.66;55.47;101974.03;5036078;28;20206;-82
2022/05/08 07:09:08;;;;;;;8.10;2.00;;;;;;;12.70;54.31;101974.72;5036203;28;20209;-81
2022/05/08 07:11:35;;;;;;;6.73;2.07;;;;;;;12.75;54.53;101981.56;5036597;28;20202;-81
2022/05/08 07:14:01;;;;;;;8.03;2.20;;;;;;;12.83;54.23;101976.69;5019430;28;20207;-81
2022/05/08 07:16:28;;;;;;;6.97;1.70;;;;;;;12.92;53.85;101979.81;5036493;28;20206;-82
2022/05/08 07:18:56;;;;;;;7.23;1.73;;;;;;;12.98;53.77;101976.84;5035838;28;20649;-82
2022/05/08 07:21:23;;;;;;;7.10;2.20;;;;;;;13.01;52.91;101972.19;5036185;28;20248;-82
2022/05/08 07:23:49;;;;;;;7.00;2.00;;;;;;;13.05;52.39;101979.13;5036668;28;20217;-82
2022/05/08 07:26:16;;;;;;;6.57;2.30;;;;;;;13.05;51.85;101980.94;5036272;28;20304;-82
2022/05/08 07:28:44;;;;;;;11.03;2.03;;;;;;;13.02;51.70;101981.94;5036241;28;20226;-82
2022/05/08 07:31:13;;;;;;;9.27;2.00;;;;;;;12.99;51.36;101986.59;5037313;28;20745;-82
2022/05/08 07:33:45;;;;;;;7.20;1.63;;;;;;;13.00;51.37;101981.16;5036801;28;20663;-82
2022/05/08 07:36:12;;;;;;;4.70;1.90;;;;;;;13.03;51.46;101989.03;5023314;28;20246;-81
2022/05/08 07:38:39;;;;;;;8.07;2.07;;;;;;;13.09;51.30;101985.16;5015312;28;20231;-81
2022/05/08 07:41:05;;;;;;;8.87;2.20;;;;;;;13.15;51.83;101984.88;5014931;28;20228;-82
2022/05/08 07:43:32;;;;;;;6.67;1.97;;;;;;;13.19;51.35;101984.63;5014955;28;20699;-81
2022/05/08 07:45:59;;;;;;;7.23;1.90;;;;;;;13.20;51.35;101990.84;5015081;28;20215;-82
2022/05/08 07:48:26;;;;;;;5.93;2.00;;;;;;;13.21;50.65;101989.91;5014501;28;20222;-81
2022/05/08 07:50:53;;;;;;;4.50;1.70;;;;;;;13.25;50.82;101991.47;5014831;28;20219;-81
2022/05/08 07:53:21;;;;;;;9.17;2.07;;;;;;;13.27;50.49;101984.22;5014927;28;20229;-81
2022/05/08 07:55:51;;;;;;;6.40;1.97;;;;;;;13.31;50.97;101985.78;5030315;28;20253;-81
2022/05/08 07:58:18;;;;;;;7.70;1.93;;;;;;;13.37;51.47;101982.78;5035334;28;20226;-81
2022/05/08 08:00:45;;;;;;;10.27;1.93;;;;;;;13.48;51.64;101982.19;5034237;28;20237;-82
2022/05/08 08:03:12;;;;;;;8.17;2.47;;;;;;;13.55;51.41;101981.78;5034860;28;20222;-82
2022/05/08 08:05:39;;;;;;;7.13;1.87;;;;;;;13.62;50.78;101984.97;5035120;28;20735;-82
2022/05/08 08:08:06;;;;;;;9.23;2.20;;;;;;;13.65;50.86;101982.13;5034676;28;20226;-82
2022/05/08 08:10:36;;;;;;;8.67;1.97;;;;;;;13.73;50.74;101984.41;5035189;28;20809;-82
2022/05/08 08:13:02;;;;;;;8.87;2.00;;;;;;;13.78;50.59;101982.34;5035028;28;20206;-82
2022/05/08 08:15:29;;;;;;;6.53;2.03;;;;;;;13.81;50.46;101990.19;5035453;28;20186;-81
2022/05/08 08:17:56;;;;;;;7.17;2.10;;;;;;;13.83;50.34;101989.16;5034969;28;20230;-81
2022/05/08 08:20:22;;;;;;;8.73;2.77;;;;;;;13.84;49.51;101987.34;5035948;28;20198;-81
2022/05/08 08:22:49;;;;;;;6.00;1.80;;;;;;;13.92;50.12;101986.91;5035729;28;20224;-82
2022/05/08 08:25:15;;;;;;;6.03;1.90;;;;;;;13.98;50.46;101989.22;5035307;28;20579;-82
2022/05/08 08:27:43;;;;;;;10.60;1.93;;;;;;;14.09;50.72;101994.88;5033204;28;20775;-81
2022/05/08 08:30:10;;;;;;;5.03;1.47;;;;;;;14.18;49.36;101992.50;5033677;28;20205;-82
2022/05/08 08:32:37;;;;;;;5.60;1.90;;;;;;;14.22;49.29;101995.88;5035040;28;20225;-82
2022/05/08 08:35:04;;;;;;;6.37;1.77;;;;;;;14.29;49.01;102004.44;5034641;28;20210;-82
2022/05/08 08:37:31;;;;;;;6.53;1.83;;;;;;;14.35;48.23;101996.91;5035754;28;20226;-82
2022/05/08 08:39:57;;;;;;;6.87;1.80;;;;;;;14.44;48.28;101992.88;5035687;28;20711;-82
2022/05/08 08:42:28;;;;;;;7.47;2.27;;;;;;;14.53;48.48;101997.69;5035863;28;20221;-82
2022/05/08 08:47:50;;;;;;;5.97;2.17;;;;;;;14.72;47.64;102005.50;5035490;28;20221;-82
2022/05/08 08:50:18;;;;;;;6.90;2.00;;;;;;;14.78;47.42;102002.47;5035554;28;20716;-82
2022/05/08 08:52:46;;;;;;;9.33;2.20;;;;;;;14.81;46.84;102007.66;5035113;28;20220;-82
2022/05/08 08:55:13;;;;;;;6.27;2.03;;;;;;;14.86;47.19;102008.25;5035641;28;20212;-82
2022/05/08 08:57:40;;;;;;;9.03;2.23;;;;;;;14.88;46.58;102009.88;5034514;28;20230;-82
2022/05/08 09:00:09;;;;;;;7.23;2.10;;;;;;;14.88;46.15;102011.69;5035602;28;20336;-82
2022/05/08 09:02:36;;;;;;;7.87;2.20;;;;;;;14.90;46.34;102007.09;5035616;28;20253;-82
2022/05/08 09:05:08;;;;;;;6.17;2.20;;;;;;;14.97;46.42;102010.28;5036414;28;20496;-82
2022/05/08 09:07:47;;;;;;;5.67;1.93;;;;;;;15.01;46.67;102010.03;5036423;28;20233;-82
2022/05/08 09:10:18;;;;;;;5.97;1.70;;;;;;;15.07;46.50;102006.94;5035792;28;20656;-82
2022/05/08 09:13:02;;;;;;;7.70;1.93;;;;;;;15.11;45.68;102011.19;5017766;28;20207;-84
2022/05/08 09:15:31;;;;;;;7.00;2.00;;;;;;;15.11;45.66;102013.84;5012239;28;20684;-83
2022/05/08 09:17:59;;;;;;;6.70;2.03;;;;;;;15.10;45.25;102009.44;5011957;28;20229;-83
2022/05/08 09:20:31;;;;;;;6.90;2.13;;;;;;;15.08;45.40;102005.13;5013171;28;20217;-83
2022/05/08 09:23:07;;;;;;;7.10;2.40;;;;;;;15.12;46.34;102012.03;5024673;28;20202;-84
2022/05/08 09:26:02;;;;;;;6.23;2.23;;;;;;;15.20;46.38;102009.78;5029027;28;20198;-83
2022/05/08 09:28:30;;;;;;;5.20;2.13;;;;;;;15.27;45.75;102009.28;5030123;28;20229;-83
2022/05/08 09:31:04;;;;;;;5.40;1.87;;;;;;;15.35;45.22;102006.13;5025519;28;20216;-82
2022/05/08 09:33:34;;;;;;;7.00;2.13;;;;;;;15.36;44.25;102007.88;5032534;28;20224;-82
2022/05/08 09:36:07;;;;;;;8.47;2.90;;;;;;;15.39;45.22;102005.00;5041864;28;20198;-83
2022/05/08 09:38:47;;;;;;;7.03;2.03;;;;;;;15.49;45.29;101999.91;5046590;28;20274;-83
2022/05/08 09:41:18;;;;;;;8.33;2.13;;;;;;;15.59;44.43;102001.94;5015830;28;20290;-82
2022/05/08 09:43:44;;;;;;;8.97;2.43;;;;;;;15.68;44.04;101997.81;5032965;28;20202;-82
2022/05/08 09:46:37;;;;;;;5.40;2.40;;;;;;;15.79;45.48;102006.03;5028679;28;20568;-83
2022/05/08 09:49:06;;;;;;;8.03;2.90;;;;;;;15.90;44.22;102000.88;5030246;28;20214;-82
2022/05/08 09:51:33;;;;;;;6.37;2.30;;;;;;;16.03;44.78;101998.25;5031102;28;20266;-83
2022/05/08 09:54:00;;;;;;;10.13;2.90;;;;;;;16.13;44.43;101993.13;5026715;28;20579;-83
2022/05/08 09:56:27;;;;;;;8.97;2.53;;;;;;;16.15;44.36;101999.25;5017291;28;20202;-82
2022/05/08 09:58:55;;;;;;;5.73;2.30;;;;;;;16.16;44.12;101985.72;5016977;28;20327;-82
2022/05/08 10:01:24;;;;;;;6.43;2.37;;;;;;;16.23;44.10;101989.75;5031639;28;20225;-83
2022/05/08 10:03:55;;;;;;;6.50;2.17;;;;;;;16.32;43.71;101990.94;5031737;28;20212;-84
2022/05/08 10:06:23;;;;;;;3.57;1.97;;;;;;;16.33;43.49;101988.16;5028979;28;20207;-83
2022/05/08 10:08:50;;;;;;;5.50;1.90;;;;;;;16.39;42.89;101991.41;5025002;28;20238;-83
2022/05/08 10:14:04;;;;;;;5.43;1.80;;;;;;;16.58;42.85;101991.91;5030112;28;20205;-82
2022/05/08 10:16:51;;;;;;;5.27;2.00;;;;;;;16.69;43.04;101992.06;5030083;28;20851;-84
2022/05/08 10:19:45;;;;;;;7.73;1.83;;;;;;;16.81;42.54;101985.03;5028652;28;20294;-82
2022/05/08 10:22:17;;;;;;;5.53;2.37;;;;;;;16.91;43.05;101984.28;5034370;28;20218;-84
2022/05/08 10:24:51;;;;;;;7.47;2.53;;;;;;;17.06;42.80;101978.78;5017211;28;20668;-82
2022/05/08 10:27:21;;;;;;;6.50;2.13;;;;;;;17.09;41.95;101979.44;5019129;28;20224;-82
2022/05/08 10:30:36;;;;;;;7.37;2.20;;;;;;;17.11;41.94;101982.91;5025392;28;20212;-82
2022/05/08 10:33:03;;;;;;;4.70;2.33;;;;;;;17.15;41.67;101970.09;5014874;28;20216;-82
2022/05/08 10:35:31;;;;;;;5.93;2.37;;;;;;;17.20;42.34;101973.28;5032408;28;20575;-82
2022/05/08 10:38:21;;;;;;;6.17;2.67;;;;;;;17.32;42.81;101972.44;5033456;28;20273;-84
2022/05/08 10:40:48;;;;;;;10.47;2.27;;;;;;;17.41;42.48;101976.31;5022710;28;20206;-81
2022/05/08 10:43:36;;;;;;;5.53;2.40;;;;;;;17.50;42.50;101970.28;5029366;28;20228;-83
2022/05/08 10:46:25;;;;;;;6.67;2.40;;;;;;;17.59;41.99;101970.47;5031997;28;20299;-84
2022/05/08 10:48:54;;;;;;;4.57;2.03;;;;;;;17.64;41.92;101979.13;5027817;28;20237;-84
2022/05/08 10:51:22;;;;;;;9.93;2.27;;;;;;;17.70;41.91;101972.44;5030454;28;20282;-83
2022/05/08 10:53:49;;;;;;;6.93;1.93;;;;;;;17.73;41.52;101977.63;5031993;28;20219;-82
2022/05/08 10:56:16;;;;;;;6.17;2.33;;;;;;;17.80;41.43;101980.72;5031603;28;20257;-83
2022/05/08 10:58:53;;;;;;;4.80;1.80;;;;;;;17.85;41.04;101970.47;5027323;28;20237;-82
2022/05/08 11:01:21;;;;;;;5.10;1.83;;;;;;;17.88;40.94;101975.63;5029000;28;20319;-83
2022/05/08 11:03:47;;;;;;;7.33;1.97;;;;;;;17.90;40.81;101973.69;5037301;28;20207;-83
2022/05/08 11:06:22;;;;;;;6.53;1.60;;;;;;;17.92;40.29;101974.41;5030637;28;20227;-83
2022/05/08 11:08:49;;;;;;;4.73;1.80;;;;;;;17.93;39.78;101968.91;5027648;28;20229;-82
2022/05/08 11:11:15;;;;;;;5.77;1.70;;;;;;;17.92;40.08;101969.88;5031908;28;20219;-82
2022/05/08 11:13:47;;;;;;;8.57;2.30;;;;;;;17.97;39.91;101970.41;5034814;28;20651;-82
2022/05/08 11:16:29;;;;;;;5.80;1.97;;;;;;;18.04;39.29;101971.69;5033002;28;20231;-83
2022/05/08 11:18:58;;;;;;;5.80;2.20;;;;;;;18.17;39.33;101970.78;5031760;28;20739;-81
2022/05/08 11:21:27;;;;;;;5.27;1.80;;;;;;;18.25;39.13;101971.94;5033016;28;20233;-83
2022/05/08 11:23:54;;;;;;;4.10;1.80;;;;;;;18.30;38.95;101974.28;5035344;28;20261;-82
2022/05/08 11:26:28;;;;;;;5.10;1.83;;;;;;;18.36;38.72;101973.81;5030779;28;20200;-82
2022/05/08 11:28:55;;;;;;;2.57;1.60;;;;;;;18.40;38.24;101969.94;5029312;28;20243;-84
2022/05/08 11:31:23;;;;;;;5.67;1.70;;;;;;;18.45;37.68;101965.03;5031860;28;20206;-83
2022/05/08 11:36:38;;;;;;;5.47;2.03;;;;;;;18.59;37.41;101969.44;5031244;28;20195;-82
2022/05/08 11:39:06;;;;;;;4.77;1.70;;;;;;;18.64;37.51;101959.97;5035943;28;20242;-83
2022/05/08 11:41:38;;;;;;;6.63;2.17;;;;;;;18.67;37.40;101972.38;5030359;28;20227;-83
2022/05/08 11:44:23;;;;;;;4.57;1.83;;;;;;;18.72;36.78;101962.97;5031347;28;20563;-83
2022/05/08 11:46:51;;;;;;;4.57;2.23;;;;;;;18.79;36.59;101959.81;5027503;28;20216;-83